createdAt,value
2023-05-05T00:00:08.609Z,54.59
2023-05-05T00:01:08.704Z,54.51
2023-05-05T00:02:08.908Z,55.52
2023-05-05T00:03:09.095Z,54.71
2023-05-05T00:04:09.230Z,56.13
2023-05-05T00:05:09.415Z,54.92
2023-05-05T00:06:09.577Z,54.00
2023-05-05T00:07:09.729Z,55.02
2023-05-05T00:08:09.896Z,55.73
2023-05-05T00:09:10.072Z,55.02
2023-05-05T00:10:10.345Z,54.92
2023-05-05T00:11:10.419Z,54.31
2023-05-05T00:12:10.591Z,55.12
2023-05-05T00:13:10.829Z,55.02
2023-05-05T00:14:10.915Z,55.52
2023-05-05T00:15:11.075Z,55.43
2023-05-05T00:16:11.263Z,54.82
2023-05-05T00:17:11.506Z,54.64
2023-05-05T00:18:11.591Z,54.74
2023-05-05T00:19:11.789Z,54.53
2023-05-05T00:20:11.945Z,54.53
2023-05-05T00:21:12.094Z,55.25
2023-05-05T00:22:12.270Z,55.15
2023-05-05T00:23:12.412Z,54.84
2023-05-05T00:24:12.617Z,54.94
2023-05-05T00:25:12.792Z,54.74
2023-05-05T00:26:12.962Z,55.35
2023-05-05T00:27:13.140Z,55.25
2023-05-05T00:28:13.313Z,55.15
2023-05-05T00:29:13.497Z,55.25
2023-05-05T00:30:13.661Z,55.04
2023-05-05T00:31:13.882Z,54.84
2023-05-05T00:32:14.042Z,55.04
2023-05-05T00:33:14.189Z,54.94
2023-05-05T00:34:14.371Z,56.46
2023-05-05T00:35:14.551Z,56.57
2023-05-05T00:36:14.739Z,56.77
2023-05-05T00:37:14.899Z,56.46
2023-05-05T00:38:15.094Z,56.77
2023-05-05T00:39:15.278Z,55.45
2023-05-05T00:40:15.414Z,55.25
2023-05-05T00:41:15.576Z,54.84
2023-05-05T00:42:15.753Z,55.47
2023-05-05T00:43:15.932Z,55.88
2023-05-05T00:44:16.099Z,55.88
2023-05-05T00:45:16.298Z,55.37
2023-05-05T00:46:16.457Z,55.37
2023-05-05T00:47:16.736Z,55.17
2023-05-05T00:48:16.831Z,55.27
2023-05-05T00:49:17.025Z,55.78
2023-05-05T00:50:17.195Z,56.09
2023-05-05T00:51:17.348Z,55.47
2023-05-05T00:52:17.560Z,56.09
2023-05-05T00:53:17.686Z,55.88
2023-05-05T00:54:17.860Z,56.39
2023-05-05T00:55:18.046Z,55.58
2023-05-05T00:56:18.208Z,55.88
2023-05-05T00:57:18.381Z,55.88
2023-05-05T00:58:18.555Z,55.50
2023-05-05T00:59:18.727Z,55.78
2023-05-05T01:00:18.908Z,56.31
2023-05-05T01:01:19.121Z,56.62
2023-05-05T01:02:19.260Z,56.82
2023-05-05T01:03:19.476Z,56.21
2023-05-05T01:04:19.624Z,56.39
2023-05-05T01:05:19.758Z,56.82
2023-05-05T01:06:19.942Z,56.62
2023-05-05T01:07:20.107Z,56.82
2023-05-05T01:08:20.290Z,56.31
2023-05-05T01:09:20.480Z,55.91
2023-05-05T01:10:21.064Z,56.11
2023-05-05T01:11:20.851Z,56.41
2023-05-05T01:12:21.003Z,56.72
2023-05-05T01:13:21.176Z,56.41
2023-05-05T01:14:21.354Z,56.41
2023-05-05T01:15:21.557Z,56.72
2023-05-05T01:16:21.815Z,56.41
2023-05-05T01:17:21.891Z,56.72
2023-05-05T01:18:22.051Z,56.52
2023-05-05T01:19:22.212Z,57.12
2023-05-05T01:20:22.387Z,56.82
2023-05-05T01:21:22.561Z,56.41
2023-05-05T01:22:22.741Z,56.62
2023-05-05T01:23:22.912Z,56.31
2023-05-05T01:24:23.115Z,56.21
2023-05-05T01:25:23.254Z,56.11
2023-05-05T01:26:23.425Z,56.31
2023-05-05T01:27:23.601Z,55.83
2023-05-05T01:28:23.764Z,56.21
2023-05-05T01:29:23.932Z,56.44
2023-05-05T01:30:24.125Z,56.04
2023-05-05T01:31:24.274Z,56.44
2023-05-05T01:32:24.437Z,56.24
2023-05-05T01:33:24.589Z,56.85
2023-05-05T01:34:24.758Z,56.95
2023-05-05T01:35:24.952Z,57.15
2023-05-05T01:36:25.126Z,57.15
2023-05-05T01:37:25.309Z,57.76
2023-05-05T01:38:25.473Z,57.76
2023-05-05T01:39:25.650Z,57.66
2023-05-05T01:40:25.839Z,56.95
2023-05-05T01:41:26.010Z,58.37
2023-05-05T01:42:26.199Z,57.86
2023-05-05T01:43:26.390Z,57.25
2023-05-05T01:44:27.065Z,57.15
2023-05-05T01:45:26.751Z,56.95
2023-05-05T01:46:26.907Z,56.74
2023-05-05T01:47:27.130Z,56.54
2023-05-05T01:48:27.256Z,57.05
2023-05-05T01:49:27.418Z,57.35
2023-05-05T01:50:27.606Z,58.06
2023-05-05T01:51:27.776Z,57.86
2023-05-05T01:52:27.961Z,57.25
2023-05-05T01:53:28.132Z,56.13
2023-05-05T01:54:28.295Z,56.24
2023-05-05T01:55:28.469Z,56.44
2023-05-05T01:56:28.640Z,56.34
2023-05-05T01:57:28.864Z,56.44
2023-05-05T01:58:29.039Z,56.74
2023-05-05T01:59:29.153Z,56.54
2023-05-05T02:00:29.333Z,56.24
2023-05-05T02:01:29.535Z,56.24
2023-05-05T02:02:29.811Z,56.65
2023-05-05T02:03:29.912Z,56.85
2023-05-05T02:04:30.054Z,56.65
2023-05-05T02:05:30.235Z,56.74
2023-05-05T02:06:30.442Z,56.44
2023-05-05T02:07:30.610Z,56.37
2023-05-05T02:08:30.774Z,56.77
2023-05-05T02:09:30.930Z,57.18
2023-05-05T02:10:31.115Z,57.38
2023-05-05T02:11:31.307Z,56.37
2023-05-05T02:12:31.626Z,57.18
2023-05-05T02:13:31.702Z,56.87
2023-05-05T02:14:31.820Z,57.48
2023-05-05T02:15:32.024Z,56.47
2023-05-05T02:16:32.187Z,56.26
2023-05-05T02:17:32.358Z,56.16
2023-05-05T02:18:32.539Z,56.39
2023-05-05T02:19:32.717Z,56.70
2023-05-05T02:20:32.953Z,56.80
2023-05-05T02:21:33.089Z,56.49
2023-05-05T02:22:33.273Z,56.90
2023-05-05T02:23:33.426Z,56.80
2023-05-05T02:24:33.602Z,56.19
2023-05-05T02:25:33.774Z,57.00
2023-05-05T02:26:33.959Z,56.80
2023-05-05T02:27:34.119Z,56.80
2023-05-05T02:28:34.297Z,56.80
2023-05-05T02:29:34.468Z,56.09
2023-05-05T02:30:34.662Z,56.19
2023-05-05T02:31:34.804Z,56.60
2023-05-05T02:32:35.003Z,56.80
2023-05-05T02:33:35.162Z,56.70
2023-05-05T02:34:35.333Z,56.60
2023-05-05T02:35:35.550Z,56.09
2023-05-05T02:36:35.678Z,56.39
2023-05-05T02:37:35.853Z,57.10
2023-05-05T02:38:36.015Z,56.80
2023-05-05T02:39:36.205Z,57.00
2023-05-05T02:40:36.380Z,57.41
2023-05-05T02:41:36.573Z,56.80
2023-05-05T02:42:36.742Z,56.49
2023-05-05T02:43:36.908Z,56.70
2023-05-05T02:44:37.094Z,56.70
2023-05-05T02:45:37.260Z,57.31
2023-05-05T02:46:37.469Z,57.00
2023-05-05T02:47:37.701Z,56.70
2023-05-05T02:48:37.783Z,56.62
2023-05-05T02:49:37.993Z,56.80
2023-05-05T02:50:38.133Z,56.80
2023-05-05T02:51:38.303Z,57.10
2023-05-05T02:52:38.502Z,56.80
2023-05-05T02:53:38.662Z,57.03
2023-05-05T02:54:38.847Z,57.03
2023-05-05T02:55:39.132Z,57.03
2023-05-05T02:56:39.225Z,56.82
2023-05-05T02:57:39.397Z,57.23
2023-05-05T02:58:39.584Z,57.34
2023-05-05T02:59:39.756Z,57.34
2023-05-05T03:00:39.937Z,57.43
2023-05-05T03:01:40.160Z,57.23
2023-05-05T03:02:40.501Z,57.13
2023-05-05T03:03:40.565Z,56.82
2023-05-05T03:04:40.694Z,56.93
2023-05-05T03:05:40.874Z,57.13
2023-05-05T03:06:41.054Z,57.84
2023-05-05T03:07:41.219Z,57.13
2023-05-05T03:08:41.402Z,57.34
2023-05-05T03:09:41.560Z,57.13
2023-05-05T03:10:41.730Z,57.54
2023-05-05T03:11:41.901Z,57.54
2023-05-05T03:12:42.139Z,57.54
2023-05-05T03:13:42.249Z,57.64
2023-05-05T03:14:42.441Z,57.43
2023-05-05T03:15:42.603Z,58.25
2023-05-05T03:16:42.841Z,57.95
2023-05-05T03:17:43.086Z,58.15
2023-05-05T03:18:43.150Z,57.46
2023-05-05T03:19:43.297Z,57.56
2023-05-05T03:20:43.498Z,57.77
2023-05-05T03:21:43.662Z,58.28
2023-05-05T03:22:43.840Z,57.77
2023-05-05T03:23:44.037Z,57.56
2023-05-05T03:24:44.182Z,57.67
2023-05-05T03:25:44.353Z,57.77
2023-05-05T03:26:44.549Z,57.36
2023-05-05T03:27:44.688Z,57.97
2023-05-05T03:28:44.858Z,57.56
2023-05-05T03:29:45.030Z,57.06
2023-05-05T03:30:45.199Z,57.36
2023-05-05T03:31:45.453Z,57.16
2023-05-05T03:32:45.597Z,57.67
2023-05-05T03:33:45.734Z,57.56
2023-05-05T03:34:45.912Z,56.75
2023-05-05T03:35:46.109Z,57.06
2023-05-05T03:36:46.290Z,57.06
2023-05-05T03:37:46.417Z,57.26
2023-05-05T03:38:46.600Z,57.26
2023-05-05T03:39:46.760Z,57.36
2023-05-05T03:40:46.966Z,56.85
2023-05-05T03:41:47.110Z,56.85
2023-05-05T03:42:47.286Z,57.26
2023-05-05T03:43:47.461Z,57.36
2023-05-05T03:44:47.677Z,57.46
2023-05-05T03:45:47.835Z,57.56
2023-05-05T03:46:47.993Z,56.85
2023-05-05T03:47:48.259Z,56.95
2023-05-05T03:48:48.363Z,57.46
2023-05-05T03:49:48.561Z,57.56
2023-05-05T03:50:48.729Z,57.26
2023-05-05T03:51:48.894Z,57.56
2023-05-05T03:52:49.064Z,57.34
2023-05-05T03:53:49.216Z,56.65
2023-05-05T03:54:49.407Z,56.14
2023-05-05T03:55:49.564Z,56.42
2023-05-05T03:56:49.755Z,56.32
2023-05-05T03:57:49.900Z,56.73
2023-05-05T03:58:50.129Z,56.52
2023-05-05T03:59:50.280Z,56.42
2023-05-05T04:00:50.441Z,56.01
2023-05-05T04:01:50.586Z,56.12
2023-05-05T04:02:50.863Z,56.62
2023-05-05T04:03:51.056Z,56.32
2023-05-05T04:04:51.132Z,56.21
2023-05-05T04:05:51.307Z,55.91
2023-05-05T04:06:51.481Z,56.32
2023-05-05T04:07:51.652Z,56.32
2023-05-05T04:08:51.838Z,56.01
2023-05-05T04:09:52.028Z,56.12
2023-05-05T04:10:52.218Z,56.32
2023-05-05T04:11:52.365Z,55.81
2023-05-05T04:12:52.679Z,56.01
2023-05-05T04:13:52.729Z,55.71
2023-05-05T04:14:52.911Z,55.58
2023-05-05T04:15:53.088Z,55.99
2023-05-05T04:16:53.241Z,55.38
2023-05-05T04:17:53.446Z,55.38
2023-05-05T04:18:53.579Z,55.27
2023-05-05T04:19:53.770Z,55.05
2023-05-05T04:20:53.957Z,54.74
2023-05-05T04:21:54.129Z,54.64
2023-05-05T04:22:54.325Z,54.74
2023-05-05T04:23:54.483Z,54.64
2023-05-05T04:24:54.712Z,54.54
2023-05-05T04:25:54.839Z,54.74
2023-05-05T04:26:55.032Z,54.84
2023-05-05T04:27:55.198Z,54.64
2023-05-05T04:28:55.376Z,54.72
2023-05-05T04:29:55.538Z,54.92
2023-05-05T04:30:55.798Z,54.41
2023-05-05T04:31:55.901Z,53.70
2023-05-05T04:32:56.076Z,54.11
2023-05-05T04:33:56.250Z,54.41
2023-05-05T04:34:56.404Z,54.61
2023-05-05T04:35:56.608Z,53.80
2023-05-05T04:36:56.791Z,53.67
2023-05-05T04:37:56.928Z,53.67
2023-05-05T04:38:57.161Z,53.55
2023-05-05T04:39:57.301Z,53.04
2023-05-05T04:40:57.480Z,52.64
2023-05-05T04:41:57.641Z,52.31
2023-05-05T04:42:57.784Z,52.00
2023-05-05T04:43:57.962Z,52.61
2023-05-05T04:44:58.164Z,52.11
2023-05-05T04:45:58.356Z,51.60
2023-05-05T04:46:58.520Z,51.90
2023-05-05T04:47:58.709Z,52.11
2023-05-05T04:48:58.839Z,52.20
2023-05-05T04:49:59.006Z,52.79
2023-05-05T04:50:59.158Z,52.28
2023-05-05T04:51:59.319Z,52.08
2023-05-05T04:52:59.499Z,52.39
2023-05-05T04:53:59.728Z,52.79
2023-05-05T04:54:59.933Z,51.57
2023-05-05T04:56:00.099Z,51.37
2023-05-05T04:57:00.219Z,51.67
2023-05-05T04:58:00.411Z,51.86
2023-05-05T04:59:00.601Z,52.06
2023-05-05T05:00:00.786Z,51.75
2023-05-05T05:01:00.933Z,51.14
2023-05-05T05:02:01.144Z,51.25
2023-05-05T05:03:01.312Z,51.14
2023-05-05T05:04:01.569Z,50.84
2023-05-05T05:05:01.632Z,51.45
2023-05-05T05:06:01.820Z,51.12
2023-05-05T05:07:01.999Z,50.11
2023-05-05T05:08:02.177Z,50.82
2023-05-05T05:09:02.375Z,50.61
2023-05-05T05:10:02.566Z,50.61
2023-05-05T05:11:02.713Z,50.21
2023-05-05T05:12:02.910Z,50.61
2023-05-05T05:13:03.097Z,50.51
2023-05-05T05:14:03.283Z,51.40
2023-05-05T05:15:03.460Z,50.97
2023-05-05T05:16:03.718Z,49.43
2023-05-05T05:17:03.794Z,48.70
2023-05-05T05:18:04.009Z,48.17
2023-05-05T05:19:04.165Z,47.97
2023-05-05T05:20:04.324Z,48.25
2023-05-05T05:21:04.494Z,47.74
2023-05-05T05:22:04.678Z,46.21
2023-05-05T05:23:04.866Z,46.61
2023-05-05T05:24:05.032Z,46.47
2023-05-05T05:25:05.282Z,45.16
2023-05-05T05:26:05.359Z,45.14
2023-05-05T05:27:06.433Z,45.62
2023-05-05T05:28:09.466Z,44.79
2023-05-05T05:29:06.916Z,44.77
2023-05-05T05:30:06.371Z,43.56
2023-05-05T05:31:06.255Z,43.44
2023-05-05T05:32:06.507Z,43.32
2023-05-05T05:33:06.643Z,43.42
2023-05-05T05:34:06.792Z,43.00
2023-05-05T05:35:06.935Z,42.49
2023-05-05T05:36:07.104Z,41.89
2023-05-05T05:37:07.274Z,41.67
2023-05-05T05:38:07.444Z,41.07
2023-05-05T05:39:07.624Z,41.25
2023-05-05T05:40:08.016Z,41.53
2023-05-05T05:41:07.960Z,40.41
2023-05-05T05:42:08.158Z,40.31
2023-05-05T05:43:08.303Z,39.79
2023-05-05T05:44:08.463Z,39.67
2023-05-05T05:45:08.641Z,39.87
2023-05-05T05:46:09.433Z,39.15
2023-05-05T05:47:08.999Z,38.81
2023-05-05T05:48:09.198Z,37.90
2023-05-05T05:49:09.323Z,37.68
2023-05-05T05:50:09.681Z,37.58
2023-05-05T05:51:09.691Z,36.76
2023-05-05T05:52:09.903Z,36.94
2023-05-05T05:53:10.007Z,35.42
2023-05-05T05:54:10.184Z,35.41
2023-05-05T05:55:10.360Z,35.29
2023-05-05T05:56:10.568Z,35.97
2023-05-05T05:57:10.712Z,34.66
2023-05-05T05:58:10.909Z,34.25
2023-05-05T05:59:11.071Z,34.43
2023-05-05T06:00:11.366Z,33.04
2023-05-05T06:01:11.395Z,33.45
2023-05-05T06:02:11.582Z,33.86
2023-05-05T06:03:11.818Z,34.50
2023-05-05T06:04:11.948Z,35.03
2023-05-05T06:05:12.109Z,36.44
2023-05-05T06:06:12.281Z,36.94
2023-05-05T06:07:12.436Z,36.86
2023-05-05T06:08:12.622Z,36.46
2023-05-05T06:09:12.771Z,36.58
2023-05-05T06:10:26.687Z,36.90
2023-05-05T06:11:14.131Z,37.01
2023-05-05T06:12:13.294Z,37.33
2023-05-05T06:13:13.514Z,37.85
2023-05-05T06:14:13.645Z,38.45
2023-05-05T06:15:13.818Z,38.65
2023-05-05T06:16:13.978Z,39.07
2023-05-05T06:17:14.156Z,38.39
2023-05-05T06:18:14.364Z,38.31
2023-05-05T06:19:14.504Z,39.42
2023-05-05T06:20:14.672Z,39.53
2023-05-05T06:21:14.846Z,39.53
2023-05-05T06:22:15.031Z,40.23
2023-05-05T06:23:15.211Z,40.13
2023-05-05T06:24:15.415Z,39.49
2023-05-05T06:25:15.576Z,39.57
2023-05-05T06:26:15.720Z,39.07
2023-05-05T06:27:15.912Z,38.73
2023-05-05T06:28:16.066Z,37.92
2023-05-05T06:29:16.284Z,37.71
2023-05-05T06:30:16.457Z,37.59
2023-05-05T06:31:16.638Z,37.18
2023-05-05T06:32:16.791Z,36.64
2023-05-05T06:33:16.985Z,36.51
2023-05-05T06:34:17.134Z,34.88
2023-05-05T06:35:17.298Z,34.16
2023-05-05T06:36:17.534Z,34.16
2023-05-05T06:37:17.683Z,33.97
2023-05-05T06:38:17.876Z,34.16
2023-05-05T06:39:18.016Z,34.64
2023-05-05T06:40:18.209Z,34.46
2023-05-05T06:41:18.400Z,33.26
2023-05-05T06:42:18.536Z,33.76
2023-05-05T06:43:18.714Z,34.06
2023-05-05T06:44:18.878Z,33.75
2023-05-05T06:45:19.063Z,33.63
2023-05-05T06:46:19.251Z,33.42
2023-05-05T06:47:19.398Z,33.78
2023-05-05T06:48:19.575Z,31.98
2023-05-05T06:49:19.742Z,31.55
2023-05-05T06:50:19.931Z,31.04
2023-05-05T06:51:20.083Z,31.13
2023-05-05T06:52:20.265Z,30.83
2023-05-05T06:53:20.402Z,30.65
2023-05-05T06:54:20.583Z,30.56
2023-05-05T06:55:20.776Z,30.76
2023-05-05T06:56:20.916Z,30.46
2023-05-05T06:57:21.132Z,30.25
2023-05-05T06:58:21.244Z,29.65
2023-05-05T06:59:21.417Z,30.74
2023-05-05T07:00:21.598Z,30.35
2023-05-05T07:01:21.808Z,29.74
2023-05-05T07:02:22.561Z,30.13
2023-05-05T07:03:22.154Z,30.73
2023-05-05T07:04:22.265Z,30.32
2023-05-05T07:05:22.419Z,30.02
2023-05-05T07:06:22.623Z,30.40
2023-05-05T07:07:22.799Z,30.10
2023-05-05T07:08:22.951Z,30.40
2023-05-05T07:09:23.130Z,29.61
2023-05-05T07:10:23.262Z,29.41
2023-05-05T07:11:23.462Z,29.61
2023-05-05T07:12:23.622Z,29.90
2023-05-05T07:13:23.776Z,30.37
2023-05-05T07:14:24.566Z,29.68
2023-05-05T07:15:29.378Z,28.69
2023-05-05T07:16:25.344Z,29.00
2023-05-05T07:17:24.511Z,30.09
2023-05-05T07:18:24.668Z,29.78
2023-05-05T07:19:24.873Z,29.27
2023-05-05T07:20:25.058Z,28.89
2023-05-05T07:21:25.226Z,28.48
2023-05-05T07:22:25.380Z,29.27
2023-05-05T07:23:25.549Z,28.67
2023-05-05T07:24:25.703Z,28.67
2023-05-05T07:25:25.880Z,28.48
2023-05-05T07:26:26.050Z,28.48
2023-05-05T07:27:26.237Z,28.48
2023-05-05T07:28:26.381Z,28.00
2023-05-05T07:29:26.546Z,28.99
2023-05-05T07:30:26.785Z,28.59
2023-05-05T07:31:26.966Z,28.69
2023-05-05T07:32:27.115Z,28.79
2023-05-05T07:33:27.222Z,28.28
2023-05-05T07:34:27.459Z,27.89
2023-05-05T07:35:27.616Z,28.78
2023-05-05T07:36:27.831Z,28.66
2023-05-05T07:37:27.926Z,28.47
2023-05-05T07:38:28.101Z,27.96
2023-05-05T07:39:28.295Z,27.94
2023-05-05T07:40:28.461Z,29.41
2023-05-05T07:41:28.615Z,27.52
2023-05-05T07:42:28.787Z,27.41
2023-05-05T07:43:28.938Z,27.30
2023-05-05T07:44:29.155Z,27.00
2023-05-05T07:45:29.315Z,26.31
2023-05-05T07:46:29.671Z,26.81
2023-05-05T07:47:29.705Z,26.61
2023-05-05T07:48:29.841Z,26.41
2023-05-05T07:49:30.032Z,27.19
2023-05-05T07:50:30.271Z,26.87
2023-05-05T07:51:30.844Z,26.36
2023-05-05T07:52:45.237Z,25.85
2023-05-05T07:53:31.731Z,24.97
2023-05-05T07:54:30.967Z,25.66
2023-05-05T07:55:31.144Z,24.29
2023-05-05T07:56:31.280Z,24.79
2023-05-05T07:57:31.450Z,25.57
2023-05-05T07:58:31.675Z,24.77
2023-05-05T07:59:31.822Z,24.76
2023-05-05T08:00:31.968Z,24.85
2023-05-05T08:01:32.131Z,24.06
2023-05-05T08:02:32.326Z,23.85
2023-05-05T08:03:32.577Z,23.57
2023-05-05T08:04:32.684Z,23.57
2023-05-05T08:05:32.822Z,23.88
2023-05-05T08:06:33.000Z,24.58
2023-05-05T08:07:33.182Z,24.77
2023-05-05T08:08:33.392Z,24.69
2023-05-05T08:09:33.589Z,24.40
2023-05-05T08:10:33.768Z,24.90
2023-05-05T08:11:33.915Z,25.39
2023-05-05T08:12:34.139Z,24.90
2023-05-05T08:13:34.271Z,25.39
2023-05-05T08:14:34.417Z,24.90
2023-05-05T08:15:34.608Z,25.29
2023-05-05T08:16:34.861Z,24.60
2023-05-05T08:17:34.987Z,24.91
2023-05-05T08:18:35.135Z,24.91
2023-05-05T08:19:35.299Z,25.32
2023-05-05T08:20:35.500Z,25.61
2023-05-05T08:21:35.656Z,25.81
2023-05-05T08:22:35.834Z,25.90
2023-05-05T08:23:35.983Z,25.32
2023-05-05T08:24:36.166Z,25.81
2023-05-05T08:25:36.320Z,25.99
2023-05-05T08:26:36.502Z,25.60
2023-05-05T08:27:36.676Z,25.29
2023-05-05T08:28:36.853Z,25.99
2023-05-05T08:29:36.997Z,25.68
2023-05-05T08:30:37.194Z,25.20
2023-05-05T08:31:37.419Z,24.49
2023-05-05T08:32:37.573Z,24.87
2023-05-05T08:33:37.692Z,25.45
2023-05-05T08:34:37.872Z,24.54
2023-05-05T08:35:38.034Z,24.73
2023-05-05T08:36:38.230Z,23.74
2023-05-05T08:37:38.400Z,23.35
2023-05-05T08:38:38.586Z,23.55
2023-05-05T08:39:38.718Z,23.45
2023-05-05T08:40:38.888Z,24.82
2023-05-05T08:41:39.056Z,23.75
2023-05-05T08:42:39.719Z,23.95
2023-05-05T08:43:39.389Z,23.85
2023-05-05T08:44:39.575Z,23.36
2023-05-05T08:45:39.756Z,23.36
2023-05-05T08:46:39.983Z,23.95
2023-05-05T08:47:40.234Z,23.66
2023-05-05T08:48:40.238Z,23.57
2023-05-05T08:49:40.404Z,24.06
2023-05-05T08:50:40.582Z,23.75
2023-05-05T08:51:40.745Z,23.08
2023-05-05T08:52:40.938Z,23.47
2023-05-05T08:53:41.110Z,23.46
2023-05-05T08:54:41.277Z,23.74
2023-05-05T08:55:41.453Z,24.93
2023-05-05T08:56:41.624Z,24.43
2023-05-05T08:57:41.784Z,23.45
2023-05-05T08:58:41.973Z,23.84
2023-05-05T08:59:42.179Z,23.83
2023-05-05T09:00:42.350Z,23.54
2023-05-05T09:01:42.491Z,22.56
2023-05-05T09:02:42.752Z,22.66
2023-05-05T09:03:43.635Z,23.05
2023-05-05T09:04:43.042Z,23.24
2023-05-05T09:05:43.206Z,22.55
2023-05-05T09:06:43.361Z,23.22
2023-05-05T09:07:43.552Z,22.42
2023-05-05T09:08:43.740Z,21.84
2023-05-05T09:09:43.935Z,22.22
2023-05-05T09:10:44.100Z,22.61
2023-05-05T09:11:44.274Z,22.91
2023-05-05T09:12:44.483Z,21.92
2023-05-05T09:13:44.600Z,22.52
2023-05-05T09:14:44.798Z,21.95
2023-05-05T09:15:44.951Z,23.13
2023-05-05T09:16:45.191Z,22.64
2023-05-05T09:17:45.347Z,23.43
2023-05-05T09:18:45.535Z,23.02
2023-05-05T09:19:45.709Z,22.13
2023-05-05T09:20:45.853Z,22.13
2023-05-05T09:21:46.040Z,22.31
2023-05-05T09:22:46.233Z,22.81
2023-05-05T09:23:46.452Z,22.31
2023-05-05T09:24:46.597Z,21.91
2023-05-05T09:25:46.783Z,21.92
2023-05-05T09:26:46.950Z,22.31
2023-05-05T09:27:47.161Z,22.52
2023-05-05T09:28:47.304Z,22.91
2023-05-05T09:29:47.461Z,22.52
2023-05-05T09:30:47.704Z,22.72
2023-05-05T09:31:47.838Z,23.30
2023-05-05T09:32:48.060Z,22.22
2023-05-05T09:33:48.208Z,21.83
2023-05-05T09:34:48.387Z,22.91
2023-05-05T09:35:48.535Z,23.20
2023-05-05T09:36:48.712Z,22.81
2023-05-05T09:37:48.925Z,22.99
2023-05-05T09:38:49.066Z,21.81
2023-05-05T09:39:49.224Z,22.47
2023-05-05T09:40:49.393Z,21.78
2023-05-05T09:41:49.571Z,21.17
2023-05-05T09:42:49.772Z,20.67
2023-05-05T09:43:49.945Z,22.31
2023-05-05T09:44:50.095Z,20.27
2023-05-05T09:45:50.292Z,19.58
2023-05-05T09:46:50.779Z,19.47
2023-05-05T09:47:50.715Z,19.96
2023-05-05T09:48:50.860Z,19.55
2023-05-05T09:49:50.987Z,20.79
2023-05-05T09:50:51.197Z,20.68
2023-05-05T09:51:51.375Z,19.43
2023-05-05T09:52:51.531Z,19.65
2023-05-05T09:53:51.718Z,20.56
2023-05-05T09:54:51.888Z,20.79
2023-05-05T09:55:52.036Z,21.49
2023-05-05T09:56:52.206Z,22.10
2023-05-05T09:57:52.398Z,21.81
2023-05-05T09:58:52.572Z,21.73
2023-05-05T09:59:52.749Z,22.12
2023-05-05T10:00:52.921Z,22.51
2023-05-05T10:01:53.118Z,22.81
2023-05-05T10:02:53.310Z,22.72
2023-05-05T10:03:53.421Z,23.02
2023-05-05T10:04:53.631Z,23.21
2023-05-05T10:05:53.803Z,23.91
2023-05-05T10:06:53.951Z,23.14
2023-05-05T10:07:54.106Z,23.85
2023-05-05T10:08:54.306Z,24.47
2023-05-05T10:09:54.454Z,25.27
2023-05-05T10:10:54.646Z,25.87
2023-05-05T10:11:54.824Z,25.28
2023-05-05T10:12:54.987Z,25.77
2023-05-05T10:13:55.147Z,25.29
2023-05-05T10:14:55.301Z,25.89
2023-05-05T10:15:55.611Z,26.50
2023-05-05T10:16:55.699Z,28.28
2023-05-05T10:18:07.079Z,27.62
2023-05-05T10:18:57.033Z,27.44
2023-05-05T10:19:56.228Z,27.56
2023-05-05T10:20:56.413Z,28.66
2023-05-05T10:21:56.582Z,28.97
2023-05-05T10:22:56.754Z,29.38
2023-05-05T10:23:56.917Z,30.39
2023-05-05T10:24:57.098Z,29.41
2023-05-05T10:25:57.217Z,29.82
2023-05-05T10:26:57.378Z,30.73
2023-05-05T10:27:57.580Z,30.66
2023-05-05T10:28:57.728Z,31.45
2023-05-05T10:29:57.933Z,31.87
2023-05-05T10:30:58.051Z,32.48
2023-05-05T10:31:58.309Z,32.89
2023-05-05T10:33:18.245Z,32.81
2023-05-05T10:33:59.774Z,32.62
2023-05-05T10:34:58.758Z,33.72
2023-05-05T10:35:58.919Z,33.53
2023-05-05T10:36:59.095Z,33.53
2023-05-05T10:37:59.250Z,33.44
2023-05-05T10:38:59.420Z,33.75
2023-05-05T10:39:59.611Z,35.94
2023-05-05T10:40:59.758Z,35.05
2023-05-05T10:41:59.956Z,33.65
2023-05-05T10:43:00.136Z,34.16
2023-05-05T10:44:02.859Z,35.06
2023-05-05T10:45:00.494Z,35.06
2023-05-05T10:46:00.791Z,34.66
2023-05-05T10:47:00.810Z,34.56
2023-05-05T10:48:00.997Z,34.64
2023-05-05T10:49:01.254Z,35.24
2023-05-05T10:50:01.314Z,34.23
2023-05-05T10:51:01.462Z,35.03
2023-05-05T10:52:01.648Z,33.65
2023-05-05T10:53:01.813Z,33.35
2023-05-05T10:54:02.061Z,34.15
2023-05-05T10:55:02.374Z,33.35
2023-05-05T10:56:02.350Z,34.55
2023-05-05T10:57:02.524Z,34.25
2023-05-05T10:58:02.720Z,35.42
2023-05-05T10:59:02.883Z,34.23
2023-05-05T11:00:03.093Z,32.84
2023-05-05T11:01:03.257Z,33.02
2023-05-05T11:02:03.450Z,33.62
2023-05-05T11:03:03.784Z,33.04
2023-05-05T11:04:03.782Z,33.44
2023-05-05T11:05:03.932Z,33.44
2023-05-05T11:06:04.112Z,33.93
2023-05-05T11:07:04.256Z,33.04
2023-05-05T11:08:04.447Z,34.13
2023-05-05T11:09:04.603Z,34.43
2023-05-05T11:10:04.804Z,33.85
2023-05-05T11:11:04.960Z,33.55
2023-05-05T11:12:05.146Z,34.45
2023-05-05T11:13:05.337Z,35.05
2023-05-05T11:14:05.492Z,34.45
2023-05-05T11:15:05.674Z,33.83
2023-05-05T11:16:05.861Z,33.93
2023-05-05T11:17:06.029Z,33.44
2023-05-05T11:18:07.989Z,33.04
2023-05-05T11:19:06.350Z,33.92
2023-05-05T11:20:06.724Z,33.12
2023-05-05T11:21:06.689Z,32.82
2023-05-05T11:22:06.864Z,33.92
2023-05-05T11:23:07.179Z,33.90
2023-05-05T11:24:07.233Z,32.90
2023-05-05T11:25:07.395Z,32.99
2023-05-05T11:26:07.619Z,32.29
2023-05-05T11:27:07.784Z,33.69
2023-05-05T11:28:07.937Z,32.29
2023-05-05T11:29:08.111Z,32.78
2023-05-05T11:30:08.451Z,33.67
2023-05-05T11:31:08.457Z,32.48
2023-05-05T11:32:08.614Z,32.57
2023-05-05T11:33:08.808Z,32.96
2023-05-05T11:34:08.969Z,32.17
2023-05-05T11:35:09.198Z,32.17
2023-05-05T11:36:09.373Z,31.77
2023-05-05T11:37:09.541Z,32.76
2023-05-05T11:38:09.719Z,31.38
2023-05-05T11:39:09.900Z,31.78
2023-05-05T11:40:10.298Z,32.08
2023-05-05T11:41:10.246Z,32.18
2023-05-05T11:42:11.064Z,31.68
2023-05-05T11:43:10.622Z,32.57
2023-05-05T11:44:10.830Z,32.97
2023-05-05T11:45:10.953Z,31.29
2023-05-05T11:46:11.223Z,31.77
2023-05-05T11:47:11.311Z,31.67
2023-05-05T11:48:11.546Z,31.57
2023-05-05T11:49:11.673Z,32.17
2023-05-05T11:50:11.894Z,31.47
2023-05-05T11:51:11.999Z,32.46
2023-05-05T11:52:12.178Z,32.75
2023-05-05T11:53:12.336Z,32.75
2023-05-05T11:54:12.513Z,30.86
2023-05-05T11:55:12.674Z,31.65
2023-05-05T11:56:12.832Z,32.24
2023-05-05T11:57:13.017Z,32.24
2023-05-05T11:58:13.166Z,30.36
2023-05-05T11:59:13.353Z,32.15
2023-05-05T12:00:13.561Z,32.64
2023-05-05T12:01:13.725Z,30.96
2023-05-05T12:02:13.983Z,31.75
2023-05-05T12:03:14.224Z,30.87
2023-05-05T12:04:14.508Z,32.06
2023-05-05T12:05:14.616Z,30.79
2023-05-05T12:06:14.617Z,31.88
2023-05-05T12:07:14.831Z,32.87
2023-05-05T12:08:14.998Z,33.17
2023-05-05T12:09:15.167Z,31.88
2023-05-05T12:10:15.318Z,32.39
2023-05-05T12:11:15.502Z,32.99
2023-05-05T12:12:15.692Z,32.09
2023-05-05T12:13:15.876Z,33.29
2023-05-05T12:14:16.039Z,33.78
2023-05-05T12:15:16.208Z,33.48
2023-05-05T12:16:16.464Z,32.81
2023-05-05T12:17:16.580Z,33.20
2023-05-05T12:18:16.718Z,32.31
2023-05-05T12:19:16.907Z,33.90
2023-05-05T12:20:17.064Z,32.51
2023-05-05T12:21:17.219Z,33.00
2023-05-05T12:22:17.413Z,33.80
2023-05-05T12:23:17.587Z,32.71
2023-05-05T12:24:17.746Z,33.20
2023-05-05T12:25:17.911Z,32.21
2023-05-05T12:26:18.057Z,33.22
2023-05-05T12:27:18.242Z,33.52
2023-05-05T12:28:18.471Z,33.81
2023-05-05T12:29:18.581Z,34.22
2023-05-05T12:30:18.899Z,33.52
2023-05-05T12:31:18.982Z,34.22
2023-05-05T12:32:19.154Z,33.02
2023-05-05T12:33:19.333Z,32.92
2023-05-05T12:34:19.521Z,33.62
2023-05-05T12:35:19.681Z,34.81
2023-05-05T12:36:19.826Z,33.62
2023-05-05T12:37:20.024Z,33.42
2023-05-05T12:38:20.169Z,34.22
2023-05-05T12:39:20.341Z,34.20
2023-05-05T12:40:20.528Z,32.92
2023-05-05T12:41:20.669Z,33.00
2023-05-05T12:42:20.856Z,32.92
2023-05-05T12:43:21.020Z,33.30
2023-05-05T12:44:21.207Z,32.03
2023-05-05T12:45:21.372Z,33.02
2023-05-05T12:46:21.587Z,32.03
2023-05-05T12:47:21.708Z,32.23
2023-05-05T12:48:21.900Z,31.73
2023-05-05T12:49:22.072Z,31.83
2023-05-05T12:50:22.263Z,32.81
2023-05-05T12:51:22.430Z,33.40
2023-05-05T12:52:22.578Z,33.70
2023-05-05T12:53:22.734Z,34.40
2023-05-05T12:54:22.930Z,32.81